Scribner, Nebraska
Current Conditions -  °F | °C
As of 10:15 PM on Wednesday 28 Jan 2015 (Local Time) from KFET Reporting Station
Overcast Overcast  
Wind Chill: 39°   Ceiling: 2400
Heat Index: 47°   Visibility: 10mi
Dew Point: 38°   Wind: 23mph
Humidity: 72%   Direction: 320°NW
Pressure: 29.92"   Gusts: 35mph
Location:  41.67°N, 96.67°W
Report Text: KFET 290415Z AUTO 32020G30KT 10SM OVC024 08/03 A2992 RMK AO2 T00810033
Loading
Personal Weather Stations






























Interactive Weather Map New forecast layout! Learn more

10-Day Weather Forecast

Advertisements
Track Severe Weather on mobile